sensor_id;sensor_type;location;lat;lon;timestamp;P1;durP1;ratioP1;P2;durP2;ratioP2
26181;SDS011;13927;51.534;11.866;2023-04-21T00:00:10;29.88;;;21.20;;
26181;SDS011;13927;51.534;11.866;2023-04-21T00:02:36;28.08;;;22.15;;
26181;SDS011;13927;51.534;11.866;2023-04-21T00:05:04;29.63;;;22.02;;
26181;SDS011;13927;51.534;11.866;2023-04-21T00:07:34;26.13;;;20.98;;
26181;SDS011;13927;51.534;11.866;2023-04-21T00:10:02;29.63;;;20.42;;
26181;SDS011;13927;51.534;11.866;2023-04-21T00:12:30;26.40;;;20.88;;
26181;SDS011;13927;51.534;11.866;2023-04-21T00:14:56;32.03;;;20.25;;
26181;SDS011;13927;51.534;11.866;2023-04-21T00:17:21;28.25;;;20.58;;
26181;SDS011;13927;51.534;11.866;2023-04-21T00:19:47;21.50;;;18.58;;
26181;SDS011;13927;51.534;11.866;2023-04-21T00:22:16;24.13;;;19.08;;
26181;SDS011;13927;51.534;11.866;2023-04-21T00:24:42;30.30;;;20.92;;
26181;SDS011;13927;51.534;11.866;2023-04-21T00:27:07;32.15;;;23.08;;
26181;SDS011;13927;51.534;11.866;2023-04-21T00:29:35;39.38;;;23.17;;
26181;SDS011;13927;51.534;11.866;2023-04-21T00:32:01;32.70;;;22.35;;
26181;SDS011;13927;51.534;11.866;2023-04-21T00:34:27;31.08;;;22.17;;
26181;SDS011;13927;51.534;11.866;2023-04-21T00:36:53;32.90;;;21.38;;
26181;SDS011;13927;51.534;11.866;2023-04-21T00:39:19;30.83;;;21.70;;
26181;SDS011;13927;51.534;11.866;2023-04-21T00:41:45;29.15;;;21.67;;
26181;SDS011;13927;51.534;11.866;2023-04-21T00:44:10;32.08;;;23.25;;
26181;SDS011;13927;51.534;11.866;2023-04-21T00:46:36;34.85;;;23.02;;
26181;SDS011;13927;51.534;11.866;2023-04-21T00:49:03;33.45;;;22.92;;
26181;SDS011;13927;51.534;11.866;2023-04-21T00:51:32;34.38;;;23.42;;
26181;SDS011;13927;51.534;11.866;2023-04-21T00:54:00;33.72;;;23.65;;
26181;SDS011;13927;51.534;11.866;2023-04-21T00:56:30;28.23;;;22.27;;
26181;SDS011;13927;51.534;11.866;2023-04-21T00:58:58;32.38;;;22.98;;
26181;SDS011;13927;51.534;11.866;2023-04-21T01:01:24;27.58;;;21.00;;
26181;SDS011;13927;51.534;11.866;2023-04-21T01:03:53;27.98;;;20.90;;
26181;SDS011;13927;51.534;11.866;2023-04-21T01:06:26;31.20;;;21.83;;
26181;SDS011;13927;51.534;11.866;2023-04-21T01:08:53;35.53;;;21.55;;
26181;SDS011;13927;51.534;11.866;2023-04-21T01:11:19;28.00;;;20.20;;
26181;SDS011;13927;51.534;11.866;2023-04-21T01:13:45;28.48;;;19.75;;
26181;SDS011;13927;51.534;11.866;2023-04-21T01:16:15;27.73;;;18.75;;
26181;SDS011;13927;51.534;11.866;2023-04-21T01:18:42;25.88;;;18.92;;
26181;SDS011;13927;51.534;11.866;2023-04-21T01:21:09;28.05;;;19.10;;
26181;SDS011;13927;51.534;11.866;2023-04-21T01:23:35;22.33;;;18.02;;
26181;SDS011;13927;51.534;11.866;2023-04-21T01:26:01;25.38;;;18.67;;
26181;SDS011;13927;51.534;11.866;2023-04-21T01:28:27;26.80;;;19.13;;
26181;SDS011;13927;51.534;11.866;2023-04-21T01:30:53;24.05;;;17.73;;
26181;SDS011;13927;51.534;11.866;2023-04-21T01:33:19;25.17;;;18.50;;
26181;SDS011;13927;51.534;11.866;2023-04-21T01:35:45;23.05;;;17.15;;
26181;SDS011;13927;51.534;11.866;2023-04-21T01:38:11;21.98;;;16.15;;
26181;SDS011;13927;51.534;11.866;2023-04-21T01:40:37;26.70;;;16.77;;
26181;SDS011;13927;51.534;11.866;2023-04-21T01:43:05;26.20;;;16.45;;
26181;SDS011;13927;51.534;11.866;2023-04-21T01:45:31;24.38;;;16.83;;
26181;SDS011;13927;51.534;11.866;2023-04-21T01:47:57;20.73;;;15.55;;
26181;SDS011;13927;51.534;11.866;2023-04-21T01:50:23;23.30;;;16.48;;
26181;SDS011;13927;51.534;11.866;2023-04-21T01:52:48;22.75;;;15.88;;
26181;SDS011;13927;51.534;11.866;2023-04-21T01:55:14;23.52;;;16.48;;
26181;SDS011;13927;51.534;11.866;2023-04-21T01:57:40;23.83;;;15.93;;
26181;SDS011;13927;51.534;11.866;2023-04-21T02:00:06;23.23;;;15.27;;
26181;SDS011;13927;51.534;11.866;2023-04-21T02:02:33;22.15;;;16.42;;
26181;SDS011;13927;51.534;11.866;2023-04-21T02:04:59;22.77;;;14.55;;
26181;SDS011;13927;51.534;11.866;2023-04-21T02:07:24;26.17;;;16.40;;
26181;SDS011;13927;51.534;11.866;2023-04-21T02:09:50;23.00;;;14.43;;
26181;SDS011;13927;51.534;11.866;2023-04-21T02:12:16;21.70;;;14.95;;
26181;SDS011;13927;51.534;11.866;2023-04-21T02:14:41;24.60;;;14.40;;
26181;SDS011;13927;51.534;11.866;2023-04-21T02:17:07;20.17;;;14.55;;
26181;SDS011;13927;51.534;11.866;2023-04-21T02:19:33;22.95;;;13.93;;
26181;SDS011;13927;51.534;11.866;2023-04-21T02:21:58;20.80;;;14.52;;
26181;SDS011;13927;51.534;11.866;2023-04-21T02:24:24;22.55;;;13.95;;
26181;SDS011;13927;51.534;11.866;2023-04-21T02:26:50;18.67;;;13.10;;
26181;SDS011;13927;51.534;11.866;2023-04-21T02:29:15;23.10;;;14.90;;
26181;SDS011;13927;51.534;11.866;2023-04-21T02:31:41;23.60;;;13.95;;
26181;SDS011;13927;51.534;11.866;2023-04-21T02:34:07;22.40;;;14.73;;
26181;SDS011;13927;51.534;11.866;2023-04-21T02:36:32;21.58;;;14.90;;
26181;SDS011;13927;51.534;11.866;2023-04-21T02:38:58;21.77;;;14.85;;
26181;SDS011;13927;51.534;11.866;2023-04-21T02:41:24;22.13;;;15.07;;
26181;SDS011;13927;51.534;11.866;2023-04-21T02:43:50;21.20;;;14.25;;
26181;SDS011;13927;51.534;11.866;2023-04-21T02:46:15;22.35;;;14.40;;
26181;SDS011;13927;51.534;11.866;2023-04-21T02:48:41;27.58;;;15.75;;
26181;SDS011;13927;51.534;11.866;2023-04-21T02:51:10;26.73;;;15.77;;
26181;SDS011;13927;51.534;11.866;2023-04-21T02:53:37;26.80;;;15.38;;
26181;SDS011;13927;51.534;11.866;2023-04-21T02:56:04;23.95;;;15.15;;
26181;SDS011;13927;51.534;11.866;2023-04-21T02:58:34;25.98;;;15.40;;
26181;SDS011;13927;51.534;11.866;2023-04-21T03:01:01;24.67;;;14.75;;
26181;SDS011;13927;51.534;11.866;2023-04-21T03:03:28;22.35;;;14.23;;
26181;SDS011;13927;51.534;11.866;2023-04-21T03:05:55;22.60;;;14.50;;
26181;SDS011;13927;51.534;11.866;2023-04-21T03:08:26;22.35;;;15.93;;
26181;SDS011;13927;51.534;11.866;2023-04-21T03:10:51;26.58;;;14.50;;
26181;SDS011;13927;51.534;11.866;2023-04-21T03:13:17;21.60;;;13.40;;
26181;SDS011;13927;51.534;11.866;2023-04-21T03:15:43;20.98;;;12.82;;
26181;SDS011;13927;51.534;11.866;2023-04-21T03:18:09;22.52;;;14.27;;
26181;SDS011;13927;51.534;11.866;2023-04-21T03:20:35;22.25;;;13.35;;
26181;SDS011;13927;51.534;11.866;2023-04-21T03:23:01;18.55;;;11.20;;
26181;SDS011;13927;51.534;11.866;2023-04-21T03:25:26;18.60;;;12.02;;
26181;SDS011;13927;51.534;11.866;2023-04-21T03:27:52;17.30;;;12.05;;
26181;SDS011;13927;51.534;11.866;2023-04-21T03:30:19;17.40;;;12.45;;
26181;SDS011;13927;51.534;11.866;2023-04-21T03:32:45;19.15;;;12.60;;
26181;SDS011;13927;51.534;11.866;2023-04-21T03:35:11;19.40;;;12.00;;
26181;SDS011;13927;51.534;11.866;2023-04-21T03:37:37;18.90;;;11.77;;
26181;SDS011;13927;51.534;11.866;2023-04-21T03:40:03;17.48;;;11.43;;
26181;SDS011;13927;51.534;11.866;2023-04-21T03:42:35;23.65;;;13.27;;
26181;SDS011;13927;51.534;11.866;2023-04-21T03:45:02;18.25;;;12.77;;
26181;SDS011;13927;51.534;11.866;2023-04-21T03:47:29;23.45;;;13.93;;
26181;SDS011;13927;51.534;11.866;2023-04-21T03:49:55;21.95;;;13.70;;
26181;SDS011;13927;51.534;11.866;2023-04-21T03:52:21;18.20;;;12.75;;
26181;SDS011;13927;51.534;11.866;2023-04-21T03:54:47;19.75;;;12.88;;
26181;SDS011;13927;51.534;11.866;2023-04-21T03:57:12;16.70;;;11.63;;
26181;SDS011;13927;51.534;11.866;2023-04-21T03:59:39;18.15;;;11.75;;
26181;SDS011;13927;51.534;11.866;2023-04-21T04:02:05;15.25;;;11.05;;
26181;SDS011;13927;51.534;11.866;2023-04-21T04:04:30;16.95;;;12.90;;
26181;SDS011;13927;51.534;11.866;2023-04-21T04:06:56;19.42;;;12.27;;
26181;SDS011;13927;51.534;11.866;2023-04-21T04:09:22;24.05;;;13.20;;
26181;SDS011;13927;51.534;11.866;2023-04-21T04:11:48;20.60;;;12.82;;
26181;SDS011;13927;51.534;11.866;2023-04-21T04:14:14;17.75;;;12.50;;
26181;SDS011;13927;51.534;11.866;2023-04-21T04:16:40;14.93;;;12.23;;
26181;SDS011;13927;51.534;11.866;2023-04-21T04:19:06;18.38;;;12.23;;
26181;SDS011;13927;51.534;11.866;2023-04-21T04:21:32;20.67;;;12.63;;
26181;SDS011;13927;51.534;11.866;2023-04-21T04:23:58;17.02;;;12.50;;
26181;SDS011;13927;51.534;11.866;2023-04-21T04:26:26;15.13;;;11.63;;
26181;SDS011;13927;51.534;11.866;2023-04-21T04:28:52;17.27;;;12.05;;
26181;SDS011;13927;51.534;11.866;2023-04-21T04:31:20;14.07;;;11.50;;
26181;SDS011;13927;51.534;11.866;2023-04-21T04:33:49;18.42;;;11.05;;
26181;SDS011;13927;51.534;11.866;2023-04-21T04:36:15;15.98;;;12.45;;
26181;SDS011;13927;51.534;11.866;2023-04-21T04:38:41;17.27;;;12.40;;
26181;SDS011;13927;51.534;11.866;2023-04-21T04:41:07;18.42;;;12.35;;
26181;SDS011;13927;51.534;11.866;2023-04-21T04:43:33;17.73;;;12.77;;
26181;SDS011;13927;51.534;11.866;2023-04-21T04:46:03;20.55;;;12.73;;
26181;SDS011;13927;51.534;11.866;2023-04-21T04:48:29;18.98;;;13.30;;
26181;SDS011;13927;51.534;11.866;2023-04-21T04:50:55;20.25;;;12.55;;
26181;SDS011;13927;51.534;11.866;2023-04-21T04:53:21;18.35;;;12.48;;
26181;SDS011;13927;51.534;11.866;2023-04-21T04:55:47;15.55;;;12.18;;
26181;SDS011;13927;51.534;11.866;2023-04-21T04:58:12;19.70;;;13.30;;
26181;SDS011;13927;51.534;11.866;2023-04-21T05:00:38;18.55;;;13.32;;
26181;SDS011;13927;51.534;11.866;2023-04-21T05:03:04;19.83;;;12.68;;
26181;SDS011;13927;51.534;11.866;2023-04-21T05:05:30;18.38;;;12.80;;
26181;SDS011;13927;51.534;11.866;2023-04-21T05:07:56;19.77;;;11.93;;
26181;SDS011;13927;51.534;11.866;2023-04-21T05:10:22;19.60;;;13.02;;
26181;SDS011;13927;51.534;11.866;2023-04-21T05:12:48;19.25;;;13.10;;
26181;SDS011;13927;51.534;11.866;2023-04-21T05:15:14;20.30;;;13.38;;
26181;SDS011;13927;51.534;11.866;2023-04-21T05:17:41;24.38;;;14.63;;
26181;SDS011;13927;51.534;11.866;2023-04-21T05:20:07;25.65;;;15.35;;
26181;SDS011;13927;51.534;11.866;2023-04-21T05:22:36;22.23;;;15.52;;
26181;SDS011;13927;51.534;11.866;2023-04-21T05:25:03;28.52;;;16.75;;
26181;SDS011;13927;51.534;11.866;2023-04-21T05:27:29;21.95;;;15.27;;
26181;SDS011;13927;51.534;11.866;2023-04-21T05:29:55;23.25;;;15.70;;
26181;SDS011;13927;51.534;11.866;2023-04-21T05:32:21;21.33;;;16.35;;
26181;SDS011;13927;51.534;11.866;2023-04-21T05:34:47;23.08;;;14.93;;
26181;SDS011;13927;51.534;11.866;2023-04-21T05:37:13;20.77;;;15.88;;
26181;SDS011;13927;51.534;11.866;2023-04-21T05:39:38;26.67;;;16.45;;
26181;SDS011;13927;51.534;11.866;2023-04-21T05:42:04;24.73;;;16.55;;
26181;SDS011;13927;51.534;11.866;2023-04-21T05:44:30;25.63;;;16.50;;
26181;SDS011;13927;51.534;11.866;2023-04-21T05:46:56;25.85;;;16.92;;
26181;SDS011;13927;51.534;11.866;2023-04-21T05:49:22;22.27;;;15.95;;
26181;SDS011;13927;51.534;11.866;2023-04-21T05:51:48;21.42;;;14.88;;
26181;SDS011;13927;51.534;11.866;2023-04-21T05:54:14;26.60;;;16.40;;
26181;SDS011;13927;51.534;11.866;2023-04-21T05:56:40;22.60;;;15.20;;
26181;SDS011;13927;51.534;11.866;2023-04-21T05:59:07;24.63;;;15.68;;
26181;SDS011;13927;51.534;11.866;2023-04-21T06:01:33;20.90;;;14.43;;
26181;SDS011;13927;51.534;11.866;2023-04-21T06:04:00;18.45;;;13.45;;
26181;SDS011;13927;51.534;11.866;2023-04-21T06:06:26;19.92;;;13.63;;
26181;SDS011;13927;51.534;11.866;2023-04-21T06:08:53;20.60;;;12.38;;
26181;SDS011;13927;51.534;11.866;2023-04-21T06:11:19;19.65;;;12.98;;
26181;SDS011;13927;51.534;11.866;2023-04-21T06:13:45;18.17;;;11.65;;
26181;SDS011;13927;51.534;11.866;2023-04-21T06:16:11;17.38;;;12.38;;
26181;SDS011;13927;51.534;11.866;2023-04-21T06:18:37;19.02;;;12.48;;
26181;SDS011;13927;51.534;11.866;2023-04-21T06:21:04;16.52;;;12.05;;
26181;SDS011;13927;51.534;11.866;2023-04-21T06:23:30;17.42;;;11.52;;
26181;SDS011;13927;51.534;11.866;2023-04-21T06:25:59;20.45;;;11.63;;
26181;SDS011;13927;51.534;11.866;2023-04-21T06:28:34;18.05;;;11.57;;
26181;SDS011;13927;51.534;11.866;2023-04-21T06:31:01;18.45;;;10.52;;
26181;SDS011;13927;51.534;11.866;2023-04-21T06:33:28;23.25;;;11.85;;
26181;SDS011;13927;51.534;11.866;2023-04-21T06:35:55;23.38;;;11.02;;
26181;SDS011;13927;51.534;11.866;2023-04-21T06:38:21;19.58;;;10.85;;
26181;SDS011;13927;51.534;11.866;2023-04-21T06:40:47;17.17;;;9.88;;
26181;SDS011;13927;51.534;11.866;2023-04-21T06:43:14;18.40;;;10.90;;
26181;SDS011;13927;51.534;11.866;2023-04-21T06:45:40;23.52;;;10.93;;
26181;SDS011;13927;51.534;11.866;2023-04-21T06:48:07;19.08;;;9.80;;
26181;SDS011;13927;51.534;11.866;2023-04-21T06:50:33;16.27;;;9.88;;
26181;SDS011;13927;51.534;11.866;2023-04-21T06:52:59;16.30;;;10.63;;
26181;SDS011;13927;51.534;11.866;2023-04-21T06:55:25;19.98;;;9.93;;
26181;SDS011;13927;51.534;11.866;2023-04-21T06:57:51;17.02;;;10.02;;
26181;SDS011;13927;51.534;11.866;2023-04-21T07:00:17;14.63;;;8.93;;
26181;SDS011;13927;51.534;11.866;2023-04-21T07:02:43;14.63;;;9.85;;
26181;SDS011;13927;51.534;11.866;2023-04-21T07:05:09;17.33;;;9.93;;
26181;SDS011;13927;51.534;11.866;2023-04-21T07:07:36;22.73;;;10.88;;
26181;SDS011;13927;51.534;11.866;2023-04-21T07:10:02;14.27;;;9.10;;
26181;SDS011;13927;51.534;11.866;2023-04-21T07:12:28;14.93;;;10.57;;
26181;SDS011;13927;51.534;11.866;2023-04-21T07:14:55;15.40;;;9.32;;
26181;SDS011;13927;51.534;11.866;2023-04-21T07:17:21;22.38;;;10.43;;
26181;SDS011;13927;51.534;11.866;2023-04-21T07:19:47;18.50;;;10.45;;
26181;SDS011;13927;51.534;11.866;2023-04-21T07:22:14;15.13;;;10.15;;
26181;SDS011;13927;51.534;11.866;2023-04-21T07:24:40;25.17;;;11.15;;
26181;SDS011;13927;51.534;11.866;2023-04-21T07:27:06;13.60;;;9.27;;
26181;SDS011;13927;51.534;11.866;2023-04-21T07:29:32;14.57;;;8.80;;
26181;SDS011;13927;51.534;11.866;2023-04-21T07:31:58;19.77;;;9.68;;
26181;SDS011;13927;51.534;11.866;2023-04-21T07:34:25;20.88;;;9.85;;
26181;SDS011;13927;51.534;11.866;2023-04-21T07:36:51;12.70;;;9.10;;
26181;SDS011;13927;51.534;11.866;2023-04-21T07:39:20;17.15;;;9.57;;
26181;SDS011;13927;51.534;11.866;2023-04-21T07:41:46;18.95;;;8.82;;
26181;SDS011;13927;51.534;11.866;2023-04-21T07:44:12;20.08;;;9.85;;
26181;SDS011;13927;51.534;11.866;2023-04-21T07:46:38;13.82;;;8.48;;
26181;SDS011;13927;51.534;11.866;2023-04-21T07:49:05;15.05;;;9.38;;
26181;SDS011;13927;51.534;11.866;2023-04-21T07:51:31;19.27;;;8.85;;
26181;SDS011;13927;51.534;11.866;2023-04-21T07:53:57;22.13;;;10.20;;
26181;SDS011;13927;51.534;11.866;2023-04-21T07:56:24;15.55;;;8.55;;
26181;SDS011;13927;51.534;11.866;2023-04-21T07:58:50;17.42;;;8.82;;
26181;SDS011;13927;51.534;11.866;2023-04-21T08:01:16;19.70;;;8.88;;
26181;SDS011;13927;51.534;11.866;2023-04-21T08:03:42;16.15;;;9.27;;
26181;SDS011;13927;51.534;11.866;2023-04-21T08:06:08;15.68;;;8.13;;
26181;SDS011;13927;51.534;11.866;2023-04-21T08:08:34;16.02;;;8.43;;
26181;SDS011;13927;51.534;11.866;2023-04-21T08:11:01;14.98;;;8.15;;
26181;SDS011;13927;51.534;11.866;2023-04-21T08:13:28;11.80;;;7.97;;
26181;SDS011;13927;51.534;11.866;2023-04-21T08:15:54;12.82;;;9.68;;
26181;SDS011;13927;51.534;11.866;2023-04-21T08:18:20;13.75;;;8.38;;
26181;SDS011;13927;51.534;11.866;2023-04-21T08:20:47;15.60;;;8.57;;
26181;SDS011;13927;51.534;11.866;2023-04-21T08:23:16;13.65;;;8.20;;
26181;SDS011;13927;51.534;11.866;2023-04-21T08:25:43;16.60;;;8.10;;
26181;SDS011;13927;51.534;11.866;2023-04-21T08:28:10;12.30;;;8.30;;
26181;SDS011;13927;51.534;11.866;2023-04-21T08:30:38;16.90;;;8.55;;
26181;SDS011;13927;51.534;11.866;2023-04-21T08:33:04;12.00;;;7.63;;
26181;SDS011;13927;51.534;11.866;2023-04-21T08:35:32;9.32;;;7.65;;
26181;SDS011;13927;51.534;11.866;2023-04-21T08:38:00;13.65;;;8.25;;
26181;SDS011;13927;51.534;11.866;2023-04-21T08:40:32;13.63;;;8.45;;
26181;SDS011;13927;51.534;11.866;2023-04-21T08:43:03;13.13;;;8.00;;
26181;SDS011;13927;51.534;11.866;2023-04-21T08:45:31;12.60;;;7.80;;
26181;SDS011;13927;51.534;11.866;2023-04-21T08:48:00;13.45;;;7.82;;
26181;SDS011;13927;51.534;11.866;2023-04-21T08:50:31;14.05;;;8.75;;
26181;SDS011;13927;51.534;11.866;2023-04-21T08:53:00;13.07;;;7.45;;
26181;SDS011;13927;51.534;11.866;2023-04-21T08:55:30;13.77;;;8.20;;
26181;SDS011;13927;51.534;11.866;2023-04-21T08:57:58;14.90;;;8.70;;
26181;SDS011;13927;51.534;11.866;2023-04-21T09:00:25;13.63;;;7.40;;
26181;SDS011;13927;51.534;11.866;2023-04-21T09:02:53;16.13;;;7.80;;
26181;SDS011;13927;51.534;11.866;2023-04-21T09:05:23;11.25;;;7.07;;
26181;SDS011;13927;51.534;11.866;2023-04-21T09:08:15;11.38;;;7.22;;
26181;SDS011;13927;51.534;11.866;2023-04-21T09:10:42;10.13;;;7.15;;
26181;SDS011;13927;51.534;11.866;2023-04-21T09:13:14;11.93;;;7.07;;
26181;SDS011;13927;51.534;11.866;2023-04-21T09:15:44;15.45;;;7.53;;
26181;SDS011;13927;51.534;11.866;2023-04-21T09:18:19;11.55;;;7.15;;
26181;SDS011;13927;51.534;11.866;2023-04-21T09:20:49;12.23;;;7.80;;
26181;SDS011;13927;51.534;11.866;2023-04-21T09:23:30;11.15;;;6.25;;
26181;SDS011;13927;51.534;11.866;2023-04-21T09:25:57;13.80;;;6.80;;
26181;SDS011;13927;51.534;11.866;2023-04-21T09:28:24;13.00;;;7.32;;
26181;SDS011;13927;51.534;11.866;2023-04-21T09:33:26;10.60;;;6.40;;
26181;SDS011;13927;51.534;11.866;2023-04-21T09:35:53;12.50;;;6.90;;
26181;SDS011;13927;51.534;11.866;2023-04-21T09:38:20;10.77;;;6.10;;
26181;SDS011;13927;51.534;11.866;2023-04-21T09:40:57;12.85;;;6.30;;
26181;SDS011;13927;51.534;11.866;2023-04-21T09:43:24;9.50;;;6.13;;
26181;SDS011;13927;51.534;11.866;2023-04-21T09:45:53;16.88;;;8.02;;
26181;SDS011;13927;51.534;11.866;2023-04-21T09:48:21;11.98;;;6.82;;
26181;SDS011;13927;51.534;11.866;2023-04-21T09:50:54;11.63;;;6.05;;
26181;SDS011;13927;51.534;11.866;2023-04-21T09:53:23;10.23;;;6.38;;
26181;SDS011;13927;51.534;11.866;2023-04-21T09:55:53;11.90;;;6.15;;
26181;SDS011;13927;51.534;11.866;2023-04-21T09:58:23;8.32;;;5.70;;
26181;SDS011;13927;51.534;11.866;2023-04-21T10:00:56;13.15;;;5.93;;
26181;SDS011;13927;51.534;11.866;2023-04-21T10:03:26;15.18;;;6.43;;
26181;SDS011;13927;51.534;11.866;2023-04-21T10:05:54;10.90;;;6.20;;
26181;SDS011;13927;51.534;11.866;2023-04-21T10:08:22;13.38;;;4.60;;
26181;SDS011;13927;51.534;11.866;2023-04-21T10:10:49;8.65;;;5.05;;
26181;SDS011;13927;51.534;11.866;2023-04-21T10:13:17;9.85;;;4.90;;
26181;SDS011;13927;51.534;11.866;2023-04-21T10:15:43;11.88;;;4.82;;
26181;SDS011;13927;51.534;11.866;2023-04-21T10:18:11;14.27;;;5.38;;
26181;SDS011;13927;51.534;11.866;2023-04-21T10:20:50;10.18;;;6.38;;
26181;SDS011;13927;51.534;11.866;2023-04-21T10:23:43;11.53;;;5.07;;
26181;SDS011;13927;51.534;11.866;2023-04-21T10:26:20;8.17;;;4.53;;
26181;SDS011;13927;51.534;11.866;2023-04-21T10:28:57;12.10;;;4.78;;
26181;SDS011;13927;51.534;11.866;2023-04-21T10:36:47;9.82;;;4.88;;
26181;SDS011;13927;51.534;11.866;2023-04-21T10:39:36;10.77;;;5.28;;
26181;SDS011;13927;51.534;11.866;2023-04-21T10:42:18;8.82;;;4.35;;
26181;SDS011;13927;51.534;11.866;2023-04-21T10:50:10;9.30;;;4.30;;
26181;SDS011;13927;51.534;11.866;2023-04-21T10:52:48;8.77;;;4.72;;
26181;SDS011;13927;51.534;11.866;2023-04-21T10:55:27;8.80;;;4.20;;
26181;SDS011;13927;51.534;11.866;2023-04-21T10:57:55;6.97;;;3.95;;
26181;SDS011;13927;51.534;11.866;2023-04-21T11:00:23;9.85;;;4.90;;
26181;SDS011;13927;51.534;11.866;2023-04-21T11:02:57;9.60;;;4.57;;
26181;SDS011;13927;51.534;11.866;2023-04-21T11:05:28;9.70;;;4.38;;
26181;SDS011;13927;51.534;11.866;2023-04-21T11:08:04;9.50;;;4.30;;
26181;SDS011;13927;51.534;11.866;2023-04-21T11:11:07;11.38;;;3.70;;
26181;SDS011;13927;51.534;11.866;2023-04-21T11:13:28;9.88;;;4.55;;
26181;SDS011;13927;51.534;11.866;2023-04-21T11:16:00;9.32;;;4.50;;
26181;SDS011;13927;51.534;11.866;2023-04-21T11:18:40;11.35;;;4.22;;
26181;SDS011;13927;51.534;11.866;2023-04-21T11:21:13;5.43;;;3.78;;
26181;SDS011;13927;51.534;11.866;2023-04-21T11:26:34;7.93;;;4.00;;
26181;SDS011;13927;51.534;11.866;2023-04-21T11:29:06;8.90;;;4.13;;
26181;SDS011;13927;51.534;11.866;2023-04-21T11:31:36;8.00;;;4.07;;
26181;SDS011;13927;51.534;11.866;2023-04-21T11:34:05;8.18;;;3.92;;
26181;SDS011;13927;51.534;11.866;2023-04-21T11:36:32;9.40;;;4.72;;
26181;SDS011;13927;51.534;11.866;2023-04-21T11:39:06;10.18;;;4.03;;
26181;SDS011;13927;51.534;11.866;2023-04-21T11:41:38;8.35;;;4.25;;
26181;SDS011;13927;51.534;11.866;2023-04-21T11:44:11;7.50;;;3.85;;
26181;SDS011;13927;51.534;11.866;2023-04-21T11:46:45;8.73;;;4.22;;
26181;SDS011;13927;51.534;11.866;2023-04-21T11:49:14;7.25;;;4.13;;
26181;SDS011;13927;51.534;11.866;2023-04-21T11:51:43;6.97;;;4.47;;
26181;SDS011;13927;51.534;11.866;2023-04-21T11:54:11;7.13;;;4.45;;
26181;SDS011;13927;51.534;11.866;2023-04-21T11:56:41;12.35;;;4.72;;
26181;SDS011;13927;51.534;11.866;2023-04-21T11:59:13;10.40;;;4.47;;
26181;SDS011;13927;51.534;11.866;2023-04-21T12:01:51;8.27;;;5.07;;
26181;SDS011;13927;51.534;11.866;2023-04-21T12:04:20;6.90;;;4.65;;
26181;SDS011;13927;51.534;11.866;2023-04-21T12:07:00;7.47;;;4.72;;
26181;SDS011;13927;51.534;11.866;2023-04-21T12:09:28;7.95;;;5.40;;
26181;SDS011;13927;51.534;11.866;2023-04-21T12:11:55;7.88;;;4.70;;
26181;SDS011;13927;51.534;11.866;2023-04-21T12:14:24;9.23;;;5.30;;
26181;SDS011;13927;51.534;11.866;2023-04-21T12:16:55;8.05;;;4.65;;
26181;SDS011;13927;51.534;11.866;2023-04-21T12:22:08;11.60;;;4.20;;
26181;SDS011;13927;51.534;11.866;2023-04-21T12:24:43;10.65;;;4.40;;
26181;SDS011;13927;51.534;11.866;2023-04-21T12:27:10;9.48;;;4.35;;
26181;SDS011;13927;51.534;11.866;2023-04-21T12:29:39;6.72;;;4.47;;
26181;SDS011;13927;51.534;11.866;2023-04-21T12:32:07;6.97;;;3.92;;
26181;SDS011;13927;51.534;11.866;2023-04-21T12:34:35;8.30;;;4.30;;
26181;SDS011;13927;51.534;11.866;2023-04-21T12:37:02;8.02;;;4.00;;
26181;SDS011;13927;51.534;11.866;2023-04-21T12:39:29;9.95;;;4.60;;
26181;SDS011;13927;51.534;11.866;2023-04-21T12:41:58;7.05;;;3.97;;
26181;SDS011;13927;51.534;11.866;2023-04-21T12:44:27;7.78;;;4.13;;
26181;SDS011;13927;51.534;11.866;2023-04-21T12:46:56;6.28;;;4.18;;
26181;SDS011;13927;51.534;11.866;2023-04-21T12:49:23;5.88;;;3.75;;
26181;SDS011;13927;51.534;11.866;2023-04-21T12:51:50;5.28;;;3.72;;
26181;SDS011;13927;51.534;11.866;2023-04-21T12:54:17;5.97;;;3.50;;
26181;SDS011;13927;51.534;11.866;2023-04-21T12:56:46;6.68;;;4.38;;
26181;SDS011;13927;51.534;11.866;2023-04-21T12:59:13;7.78;;;3.85;;
26181;SDS011;13927;51.534;11.866;2023-04-21T13:01:40;7.20;;;3.97;;
26181;SDS011;13927;51.534;11.866;2023-04-21T13:04:08;6.85;;;3.80;;
26181;SDS011;13927;51.534;11.866;2023-04-21T13:06:36;4.85;;;3.58;;
26181;SDS011;13927;51.534;11.866;2023-04-21T13:09:05;5.10;;;3.70;;
26181;SDS011;13927;51.534;11.866;2023-04-21T13:11:32;6.28;;;3.35;;
26181;SDS011;13927;51.534;11.866;2023-04-21T13:13:59;10.15;;;3.45;;
26181;SDS011;13927;51.534;11.866;2023-04-21T13:16:28;8.93;;;3.90;;
26181;SDS011;13927;51.534;11.866;2023-04-21T13:18:58;10.35;;;4.50;;
26181;SDS011;13927;51.534;11.866;2023-04-21T13:21:24;13.15;;;4.63;;
26181;SDS011;13927;51.534;11.866;2023-04-21T13:23:52;7.50;;;4.75;;
26181;SDS011;13927;51.534;11.866;2023-04-21T13:26:21;7.97;;;4.03;;
26181;SDS011;13927;51.534;11.866;2023-04-21T13:28:48;6.18;;;3.47;;
26181;SDS011;13927;51.534;11.866;2023-04-21T13:31:17;9.00;;;3.70;;
26181;SDS011;13927;51.534;11.866;2023-04-21T13:33:46;7.55;;;3.72;;
26181;SDS011;13927;51.534;11.866;2023-04-21T13:36:12;9.02;;;3.40;;
26181;SDS011;13927;51.534;11.866;2023-04-21T13:38:39;6.97;;;4.20;;
26181;SDS011;13927;51.534;11.866;2023-04-21T13:41:06;14.30;;;3.80;;
26181;SDS011;13927;51.534;11.866;2023-04-21T13:43:33;11.38;;;4.13;;
26181;SDS011;13927;51.534;11.866;2023-04-21T13:45:59;6.93;;;3.53;;
26181;SDS011;13927;51.534;11.866;2023-04-21T13:48:26;8.23;;;4.07;;
26181;SDS011;13927;51.534;11.866;2023-04-21T13:50:54;12.05;;;4.20;;
26181;SDS011;13927;51.534;11.866;2023-04-21T13:53:21;11.30;;;4.20;;
26181;SDS011;13927;51.534;11.866;2023-04-21T13:55:48;6.00;;;3.65;;
26181;SDS011;13927;51.534;11.866;2023-04-21T13:58:17;10.30;;;3.47;;
26181;SDS011;13927;51.534;11.866;2023-04-21T14:00:43;6.28;;;3.60;;
26181;SDS011;13927;51.534;11.866;2023-04-21T14:03:10;7.72;;;3.60;;
26181;SDS011;13927;51.534;11.866;2023-04-21T14:05:36;7.32;;;4.18;;
26181;SDS011;13927;51.534;11.866;2023-04-21T14:08:04;18.73;;;8.00;;
26181;SDS011;13927;51.534;11.866;2023-04-21T14:10:32;10.85;;;4.47;;
26181;SDS011;13927;51.534;11.866;2023-04-21T14:12:59;12.32;;;4.07;;
26181;SDS011;13927;51.534;11.866;2023-04-21T14:15:27;7.80;;;3.78;;
26181;SDS011;13927;51.534;11.866;2023-04-21T14:17:54;9.02;;;3.97;;
26181;SDS011;13927;51.534;11.866;2023-04-21T14:20:22;8.13;;;4.57;;
26181;SDS011;13927;51.534;11.866;2023-04-21T14:22:49;8.32;;;3.58;;
26181;SDS011;13927;51.534;11.866;2023-04-21T14:25:15;8.27;;;3.50;;
26181;SDS011;13927;51.534;11.866;2023-04-21T14:27:42;22.50;;;7.05;;
26181;SDS011;13927;51.534;11.866;2023-04-21T14:30:09;6.63;;;3.50;;
26181;SDS011;13927;51.534;11.866;2023-04-21T14:32:37;4.82;;;3.72;;
26181;SDS011;13927;51.534;11.866;2023-04-21T14:35:12;7.25;;;3.95;;
26181;SDS011;13927;51.534;11.866;2023-04-21T14:37:39;18.48;;;7.10;;
26181;SDS011;13927;51.534;11.866;2023-04-21T14:40:06;8.95;;;3.67;;